createdAt,value
2023-01-10T00:03:19.746Z,5.35
2023-01-10T00:07:21.221Z,5.29
2023-01-10T00:11:41.857Z,5.47
2023-01-10T00:15:43.416Z,5.66
2023-01-10T00:19:44.953Z,5.62
2023-01-10T00:23:48.874Z,5.61
2023-01-10T00:28:16.241Z,5.68
2023-01-10T00:32:18.627Z,5.71
2023-01-10T00:36:22.162Z,5.61
2023-01-10T00:40:24.036Z,5.82
2023-01-10T00:44:26.048Z,5.61
2023-01-10T00:48:27.561Z,5.62
2023-01-10T00:52:29.004Z,5.63
2023-01-10T00:56:30.542Z,5.49
2023-01-10T01:00:32.198Z,5.86
2023-01-10T01:04:34.502Z,5.67
2023-01-10T01:08:36.229Z,5.74
2023-01-10T01:12:37.671Z,5.76
2023-01-10T01:16:39.179Z,5.62
2023-01-10T01:20:42.103Z,5.81
2023-01-10T01:24:43.561Z,5.66
2023-01-10T01:28:44.991Z,5.70
2023-01-10T01:32:46.490Z,5.58
2023-01-10T01:36:48.233Z,5.65
2023-01-10T01:40:49.691Z,5.58
2023-01-10T01:45:09.413Z,5.70
2023-01-10T01:49:16.586Z,5.74
2023-01-10T01:53:36.253Z,5.59
2023-01-10T01:57:38.055Z,5.64
2023-01-10T02:01:42.517Z,5.71
2023-01-10T02:05:45.243Z,5.97
2023-01-10T02:09:59.409Z,5.98
2023-01-10T02:14:04.960Z,5.87
2023-01-10T02:18:07.208Z,5.52
2023-01-10T02:22:27.458Z,5.42
2023-01-10T02:27:01.132Z,5.52
2023-01-10T02:31:24.119Z,5.56
2023-01-10T02:36:06.929Z,5.45
2023-01-10T02:40:21.027Z,5.73
2023-01-10T02:44:45.397Z,5.90
2023-01-10T02:48:46.844Z,5.84
2023-01-10T02:52:48.352Z,5.79
2023-01-10T02:57:15.366Z,5.62
2023-01-10T03:01:59.342Z,5.64
2023-01-10T03:06:35.212Z,5.74
2023-01-10T03:10:41.658Z,5.61
2023-01-10T03:14:46.351Z,5.55
2023-01-10T03:18:54.257Z,5.69
2023-01-10T03:22:56.018Z,5.64
2023-01-10T03:27:07.548Z,5.70
2023-01-10T03:31:16.071Z,5.81
2023-01-10T03:35:20.753Z,5.54
2023-01-10T03:39:39.953Z,5.62
2023-01-10T03:44:03.412Z,5.51
2023-01-10T03:48:07.598Z,5.61
2023-01-10T03:52:13.481Z,5.53
2023-01-10T03:56:15.670Z,5.59
2023-01-10T04:00:17.824Z,5.51
2023-01-10T04:04:19.285Z,5.79
2023-01-10T04:08:20.776Z,5.48
2023-01-10T04:12:22.231Z,5.36
2023-01-10T04:16:23.746Z,5.61
2023-01-10T04:20:27.203Z,5.56
2023-01-10T04:24:28.650Z,5.64
2023-01-10T04:28:30.103Z,5.40
2023-01-10T04:32:31.565Z,5.22
2023-01-10T04:36:33.303Z,5.52
2023-01-10T04:40:34.718Z,5.48
2023-01-10T04:44:36.201Z,5.43
2023-01-10T04:48:37.655Z,5.51
2023-01-10T04:52:40.990Z,5.70
2023-01-10T04:56:42.477Z,5.41
2023-01-10T05:00:43.899Z,5.46
2023-01-10T05:04:45.322Z,5.49
2023-01-10T05:08:47.094Z,5.54
2023-01-10T05:12:48.531Z,5.49
2023-01-10T05:16:50.044Z,5.39
2023-01-10T05:20:51.499Z,5.49
2023-01-10T05:24:54.640Z,5.59
2023-01-10T05:28:56.235Z,5.45
2023-01-10T05:32:57.677Z,5.39
2023-01-10T05:36:59.116Z,5.28
2023-01-10T05:41:01.284Z,5.52
2023-01-10T05:45:03.443Z,5.27
2023-01-10T05:49:04.981Z,5.27
2023-01-10T05:53:07.236Z,5.56
2023-01-10T05:57:08.707Z,5.50
2023-01-10T06:01:10.635Z,5.33
2023-01-10T06:05:12.088Z,5.47
2023-01-10T06:09:13.537Z,5.62
2023-01-10T06:13:15.285Z,5.43
2023-01-10T06:17:16.804Z,5.37
2023-01-10T06:21:18.388Z,5.48
2023-01-10T06:25:19.853Z,5.51
2023-01-10T06:29:21.365Z,5.81
2023-01-10T06:33:22.785Z,5.88
2023-01-10T06:37:24.226Z,5.98
2023-01-10T06:41:25.786Z,5.86
2023-01-10T06:45:27.600Z,5.98
2023-01-10T06:49:29.890Z,6.05
2023-01-10T06:53:32.460Z,5.76
2023-01-10T06:57:38.247Z,5.74
2023-01-10T07:01:39.950Z,5.70
2023-01-10T07:05:41.499Z,5.77
2023-01-10T07:09:43.006Z,5.61
2023-01-10T07:13:44.496Z,5.65
2023-01-10T07:17:45.946Z,5.84
2023-01-10T07:21:47.409Z,5.76
2023-01-10T07:25:48.846Z,5.72
2023-01-10T07:29:50.275Z,5.56
2023-01-10T07:33:52.344Z,5.65
2023-01-10T07:37:53.994Z,5.64
2023-01-10T07:41:56.231Z,5.79
2023-01-10T07:46:02.749Z,5.56
2023-01-10T07:50:04.644Z,5.49
2023-01-10T07:54:06.243Z,5.64
2023-01-10T07:58:08.027Z,5.52
2023-01-10T08:02:11.223Z,5.70
2023-01-10T08:06:14.233Z,5.62
2023-01-10T08:10:17.062Z,5.64
2023-01-10T08:14:18.620Z,5.63
2023-01-10T08:18:21.777Z,5.61
2023-01-10T08:22:23.178Z,5.54
2023-01-10T08:26:24.652Z,5.68
2023-01-10T08:30:26.158Z,5.53
2023-01-10T08:34:27.764Z,5.95
2023-01-10T08:38:29.369Z,5.42
2023-01-10T08:42:30.958Z,5.60
2023-01-10T08:46:32.704Z,5.49
2023-01-10T08:50:34.333Z,5.79
2023-01-10T08:54:35.822Z,5.87
2023-01-10T08:58:37.259Z,5.82
2023-01-10T09:02:42.082Z,5.74
2023-01-10T09:06:43.594Z,5.99
2023-01-10T09:10:45.130Z,6.15
2023-01-10T09:14:46.683Z,5.98
2023-01-10T09:18:48.255Z,6.62
2023-01-10T09:22:49.748Z,6.95
2023-01-10T09:26:51.220Z,6.20
2023-01-10T09:30:53.282Z,6.14
2023-01-10T09:34:54.706Z,5.95
2023-01-10T09:38:56.154Z,6.11
2023-01-10T09:43:10.339Z,5.87
2023-01-10T09:47:23.874Z,5.99
2023-01-10T09:51:25.347Z,5.73
2023-01-10T09:55:33.640Z,6.05
2023-01-10T09:59:41.650Z,6.31
2023-01-10T10:04:00.449Z,6.42
2023-01-10T10:08:02.600Z,6.32
2023-01-10T10:12:04.053Z,5.93
2023-01-10T10:16:25.251Z,6.31
2023-01-10T10:20:49.360Z,6.60
2023-01-10T10:25:15.667Z,5.99
2023-01-10T10:29:22.809Z,6.33
2023-01-10T10:34:05.222Z,6.63
2023-01-10T10:38:18.455Z,6.32
2023-01-10T10:42:20.149Z,6.10
2023-01-10T10:46:22.426Z,6.55
2023-01-10T10:50:58.112Z,6.56
2023-01-10T10:54:59.622Z,6.72
2023-01-10T10:59:01.328Z,6.34
2023-01-10T11:03:13.294Z,6.75
2023-01-10T11:07:17.488Z,6.79
2023-01-10T11:11:33.898Z,6.99
2023-01-10T11:15:37.406Z,7.16
2023-01-10T11:19:38.843Z,7.85
2023-01-10T11:23:42.710Z,7.72
2023-01-10T11:27:51.561Z,8.46
2023-01-10T11:31:55.953Z,7.68
2023-01-10T11:36:09.265Z,7.71
2023-01-10T11:40:30.068Z,8.00
2023-01-10T11:44:31.581Z,9.43
2023-01-10T11:49:03.757Z,8.54
2023-01-10T11:53:05.315Z,8.33
2023-01-10T11:57:19.547Z,7.51
2023-01-10T12:01:27.332Z,7.19
2023-01-10T12:05:29.261Z,7.51
2023-01-10T12:09:32.735Z,7.58
2023-01-10T12:13:50.446Z,8.24
2023-01-10T12:17:53.107Z,9.20
2023-01-10T12:21:59.537Z,9.75
2023-01-10T12:26:11.470Z,9.64
2023-01-10T12:30:24.981Z,8.80
2023-01-10T12:34:39.758Z,8.86
2023-01-10T12:39:03.900Z,8.52
2023-01-10T12:43:48.718Z,8.99
2023-01-10T12:48:08.444Z,9.77
2023-01-10T12:52:18.132Z,8.39
2023-01-10T12:56:20.249Z,8.11
2023-01-10T13:00:32.794Z,7.54
2023-01-10T13:04:39.471Z,7.80
2023-01-10T13:08:43.284Z,7.65
2023-01-10T13:12:50.003Z,7.81
2023-01-10T13:17:21.822Z,7.63
2023-01-10T13:21:23.311Z,7.36
2023-01-10T13:25:30.362Z,7.55
2023-01-10T13:29:40.671Z,7.08
2023-01-10T13:33:55.445Z,7.29
2023-01-10T13:37:57.103Z,7.28
2023-01-10T13:42:17.066Z,6.96
2023-01-10T13:46:18.613Z,7.05
2023-01-10T13:50:23.223Z,7.35
2023-01-10T13:54:28.357Z,7.26
2023-01-10T13:59:00.002Z,7.45
2023-01-10T14:03:01.548Z,7.04
2023-01-10T14:07:23.135Z,7.07
2023-01-10T14:12:01.781Z,7.15
2023-01-10T14:16:05.163Z,7.50
2023-01-10T14:20:12.906Z,7.51
2023-01-10T14:24:32.032Z,6.67
2023-01-10T14:28:35.387Z,7.08
2023-01-10T14:32:43.615Z,6.81
2023-01-10T14:36:53.625Z,6.68
2023-01-10T14:41:00.450Z,6.82
2023-01-10T14:45:14.176Z,6.87
2023-01-10T14:49:35.479Z,6.69
2023-01-10T14:53:36.932Z,6.69
2023-01-10T14:57:38.626Z,6.54
2023-01-10T15:01:40.296Z,6.56
2023-01-10T15:05:51.827Z,6.58
2023-01-10T15:09:57.181Z,6.33
2023-01-10T15:14:08.103Z,6.36
2023-01-10T15:18:27.940Z,6.57
2023-01-10T15:22:32.716Z,6.42
2023-01-10T15:26:34.275Z,6.63
2023-01-10T15:30:37.406Z,6.17
2023-01-10T15:34:39.672Z,6.01
2023-01-10T15:38:45.744Z,5.87
2023-01-10T15:42:47.597Z,6.04
2023-01-10T15:46:58.028Z,5.98
2023-01-10T15:51:10.586Z,6.09
2023-01-10T15:55:34.942Z,6.03
2023-01-10T15:59:39.729Z,6.18
2023-01-10T16:03:48.042Z,6.07
2023-01-10T16:07:49.878Z,6.16
2023-01-10T16:12:12.272Z,6.11
2023-01-10T16:16:18.670Z,6.00
2023-01-10T16:20:30.701Z,5.95
2023-01-10T16:24:35.517Z,6.06
2023-01-10T16:28:37.922Z,6.13
2023-01-10T16:32:39.346Z,6.20
2023-01-10T16:36:43.015Z,6.10
2023-01-10T16:40:48.842Z,6.11
2023-01-10T16:44:50.250Z,5.98
2023-01-10T16:48:53.265Z,5.68
2023-01-10T16:52:54.796Z,5.60
2023-01-10T16:56:56.224Z,5.38
2023-01-10T17:00:58.928Z,5.49
2023-01-10T17:05:00.417Z,5.28
2023-01-10T17:09:01.924Z,5.46
2023-01-10T17:13:04.702Z,5.33
2023-01-10T17:17:06.176Z,5.28
2023-01-10T17:21:14.365Z,5.15
2023-01-10T17:25:20.905Z,5.23
2023-01-10T17:29:23.376Z,5.15
2023-01-10T17:33:26.069Z,5.20
2023-01-10T17:37:27.569Z,5.22
2023-01-10T17:41:29.086Z,5.24
2023-01-10T17:45:30.800Z,5.22
2023-01-10T17:49:32.439Z,5.12
2023-01-10T17:53:34.126Z,4.86
2023-01-10T17:57:38.174Z,4.81
2023-01-10T18:01:39.932Z,4.71
2023-01-10T18:06:02.054Z,5.13
2023-01-10T18:10:04.146Z,5.27
2023-01-10T18:14:24.073Z,4.99
2023-01-10T18:18:27.705Z,5.01
2023-01-10T18:22:47.689Z,4.87
2023-01-10T18:26:49.618Z,5.30
2023-01-10T18:30:51.231Z,4.90
2023-01-10T18:34:52.706Z,4.81
2023-01-10T18:38:54.236Z,4.66
2023-01-10T18:42:57.529Z,4.69
2023-01-10T18:46:58.977Z,4.36
2023-01-10T18:51:02.092Z,4.52
2023-01-10T18:55:03.885Z,4.58
2023-01-10T18:59:05.394Z,4.30
2023-01-10T19:03:07.495Z,4.34
2023-01-10T19:07:08.993Z,4.11
2023-01-10T19:11:16.451Z,4.06
2023-01-10T19:15:18.291Z,4.16
2023-01-10T19:19:19.739Z,4.12
2023-01-10T19:23:21.204Z,4.23
2023-01-10T19:27:22.749Z,4.36
2023-01-10T19:31:27.523Z,4.13
2023-01-10T19:35:34.385Z,4.21
2023-01-10T19:39:36.562Z,4.18
2023-01-10T19:43:38.100Z,4.20
2023-01-10T19:47:39.549Z,3.89
2023-01-10T19:51:41.126Z,3.70
2023-01-10T19:55:42.695Z,3.72
2023-01-10T19:59:45.414Z,3.84
2023-01-10T20:03:47.753Z,4.11
2023-01-10T20:07:50.679Z,3.84
2023-01-10T20:11:52.277Z,3.80
2023-01-10T20:15:54.088Z,4.09
2023-01-10T20:19:56.132Z,3.94
2023-01-10T20:23:57.575Z,3.99
2023-01-10T20:27:59.023Z,3.96
2023-01-10T20:32:02.457Z,3.92
2023-01-10T20:36:06.905Z,3.75
2023-01-10T20:40:09.765Z,3.64
2023-01-10T20:44:11.254Z,3.81
2023-01-10T20:48:12.691Z,3.72
2023-01-10T20:52:14.170Z,3.57
2023-01-10T20:56:19.170Z,3.61
2023-01-10T21:00:20.931Z,3.63
2023-01-10T21:04:22.330Z,3.39
2023-01-10T21:08:23.987Z,3.27
2023-01-10T21:12:27.739Z,3.21
2023-01-10T21:16:29.268Z,3.32
2023-01-10T21:20:30.741Z,3.32
2023-01-10T21:24:32.191Z,3.21
2023-01-10T21:28:38.740Z,3.30
2023-01-10T21:32:40.311Z,3.45
2023-01-10T21:36:42.554Z,3.14
2023-01-10T21:40:43.987Z,3.22
2023-01-10T21:44:45.447Z,3.28
2023-01-10T21:48:46.940Z,3.16
2023-01-10T21:52:48.468Z,3.09
2023-01-10T21:56:49.922Z,3.27
2023-01-10T22:00:55.442Z,3.27
2023-01-10T22:04:57.084Z,3.17
2023-01-10T22:08:58.573Z,3.21
2023-01-10T22:13:00.098Z,3.43
2023-01-10T22:17:02.256Z,3.38
2023-01-10T22:21:03.732Z,3.28
2023-01-10T22:25:05.783Z,3.37
2023-01-10T22:29:07.285Z,3.36
2023-01-10T22:33:08.761Z,3.37
2023-01-10T22:37:10.184Z,3.31
2023-01-10T22:41:16.259Z,3.30
2023-01-10T22:45:18.477Z,3.35
2023-01-10T22:49:20.816Z,3.45
2023-01-10T22:53:22.323Z,3.43
2023-01-10T22:57:23.809Z,3.42
2023-01-10T23:01:26.174Z,3.41
2023-01-10T23:05:27.726Z,3.33
2023-01-10T23:09:29.172Z,3.41
2023-01-10T23:13:30.884Z,3.66
2023-01-10T23:17:32.441Z,3.45
2023-01-10T23:21:33.857Z,3.58
2023-01-10T23:25:36.142Z,3.50
2023-01-10T23:29:37.599Z,3.42
2023-01-10T23:33:39.095Z,3.59
2023-01-10T23:37:40.591Z,3.56
2023-01-10T23:41:42.011Z,3.73
2023-01-10T23:45:44.149Z,3.67
2023-01-10T23:49:45.590Z,3.63
2023-01-10T23:53:47.040Z,3.70
2023-01-10T23:57:48.525Z,3.66
